Time;durP1;ratioP1;P1;durP2;ratioP2;P2;SDS_P1;SDS_P2;PMS_P1;PMS_P2;Temp;Humidity;BMP_temperature;BMP_pressure;BME280_temperature;BME280_humidity;BME280_pressure;Samples;Min_cycle;Max_cycle;Signal;HPM_P1;HPM_P2
2022/08/24 00:01:08;;;;;;;0.60;0.60;;;9.50;99.90;;;;;;5113443;28;20195;-72
2022/08/24 00:03:36;;;;;;;1.45;1.17;;;9.50;99.90;;;;;;5113018;28;20230;-72
2022/08/24 00:06:02;;;;;;;0.70;0.70;;;9.40;99.90;;;;;;5113674;28;20585;-71
2022/08/24 00:08:28;;;;;;;0.80;0.80;;;9.40;99.90;;;;;;5111770;28;20194;-71
2022/08/24 00:10:58;;;;;;;0.70;0.70;;;9.40;99.90;;;;;;5112406;28;20222;-71
2022/08/24 00:13:25;;;;;;;0.85;0.85;;;9.40;99.90;;;;;;5112570;28;20198;-73
2022/08/24 00:15:51;;;;;;;0.60;0.60;;;9.40;99.90;;;;;;5094666;28;20257;-72
2022/08/24 00:18:17;;;;;;;0.70;0.70;;;9.40;99.90;;;;;;5112722;28;20319;-73
2022/08/24 00:20:44;;;;;;;0.55;0.55;;;9.40;99.90;;;;;;5112553;28;20722;-72
2022/08/24 00:23:11;;;;;;;0.70;0.70;;;9.40;99.90;;;;;;5111759;28;20724;-71
2022/08/24 00:25:37;;;;;;;0.50;0.50;;;9.30;99.90;;;;;;5112129;28;20616;-71
2022/08/24 00:28:04;;;;;;;3.50;1.83;;;9.30;99.90;;;;;;5111389;28;20278;-71
2022/08/24 00:30:31;;;;;;;0.60;0.60;;;9.30;99.90;;;;;;5112057;28;20179;-73
2022/08/24 00:32:56;;;;;;;0.55;0.55;;;9.20;99.90;;;;;;5112431;28;20211;-73
2022/08/24 00:35:23;;;;;;;0.60;0.60;;;9.20;99.90;;;;;;5112097;28;20657;-73
2022/08/24 00:37:50;;;;;;;0.60;0.60;;;9.20;99.90;;;;;;5111752;28;20672;-73
2022/08/24 00:40:29;;;;;;;0.60;0.60;;;9.10;99.90;;;;;;5110974;28;20665;-73
2022/08/24 00:43:02;;;;;;;0.70;0.70;;;9.10;99.90;;;;;;5112437;28;20207;-73
2022/08/24 00:45:28;;;;;;;1.67;0.90;;;9.10;99.90;;;;;;5112138;28;20202;-73
2022/08/24 00:47:58;;;;;;;0.60;0.60;;;9.10;99.90;;;;;;5112641;28;20670;-73
2022/08/24 00:50:38;;;;;;;0.60;0.60;;;9.10;99.90;;;;;;5110306;28;20252;-72
2022/08/24 00:53:09;;;;;;;0.70;0.70;;;9.10;99.90;;;;;;5111092;28;20294;-72
2022/08/24 00:55:48;;;;;;;2.15;1.20;;;9.10;99.90;;;;;;5111599;28;20195;-72
2022/08/24 00:58:19;;;;;;;0.55;0.55;;;9.10;99.90;;;;;;5110734;28;20192;-73
2022/08/24 01:00:49;;;;;;;1.42;1.13;;;9.00;99.90;;;;;;5110493;28;20256;-73
2022/08/24 01:03:16;;;;;;;0.70;0.70;;;9.00;99.90;;;;;;5110566;28;20215;-72
2022/08/24 01:05:43;;;;;;;0.60;0.60;;;9.00;99.90;;;;;;5111838;28;20688;-73
2022/08/24 01:08:10;;;;;;;0.60;0.60;;;9.00;99.90;;;;;;5110591;28;20617;-74
2022/08/24 01:10:43;;;;;;;0.60;0.60;;;9.00;99.90;;;;;;5110796;28;20199;-73
2022/08/24 01:13:11;;;;;;;1.58;1.48;;;8.90;99.90;;;;;;5111963;28;20244;-72
2022/08/24 01:15:39;;;;;;;0.80;0.70;;;8.90;99.90;;;;;;5110471;28;20249;-73
2022/08/24 01:21:20;;;;;;;0.63;0.63;;;8.90;99.90;;;;;;5111729;28;20234;-73
2022/08/24 01:23:53;;;;;;;0.85;0.85;;;8.80;99.90;;;;;;5110579;28;20214;-73
2022/08/24 01:26:34;;;;;;;0.60;0.60;;;8.80;99.90;;;;;;5104498;28;20654;-73
2022/08/24 01:29:04;;;;;;;0.60;0.60;;;8.80;99.90;;;;;;5091484;28;20676;-73
2022/08/24 01:31:30;;;;;;;0.60;0.60;;;8.80;99.90;;;;;;5091242;28;20191;-73
2022/08/24 01:33:56;;;;;;;0.73;0.73;;;8.80;99.90;;;;;;5089755;28;20556;-73
2022/08/24 01:36:22;;;;;;;0.60;0.60;;;8.80;99.90;;;;;;5091064;28;20588;-73
2022/08/24 01:38:48;;;;;;;0.60;0.60;;;8.70;99.90;;;;;;5091346;28;20215;-73
2022/08/24 01:41:14;;;;;;;0.70;0.70;;;8.70;99.90;;;;;;5090904;28;20191;-73
2022/08/24 01:43:40;;;;;;;0.70;0.70;;;8.70;99.90;;;;;;5089416;28;20219;-74
2022/08/24 01:46:06;;;;;;;1.20;1.00;;;8.70;99.90;;;;;;5105032;28;20195;-74
2022/08/24 01:48:32;;;;;;;0.70;0.70;;;8.70;99.90;;;;;;5111235;28;20187;-72
2022/08/24 01:50:58;;;;;;;0.70;0.70;;;8.60;99.90;;;;;;5111493;28;20409;-73
2022/08/24 01:53:27;;;;;;;0.60;0.60;;;8.70;99.90;;;;;;5111243;28;20188;-72
2022/08/24 01:55:53;;;;;;;0.70;0.70;;;8.70;99.90;;;;;;5109934;28;20196;-73
2022/08/24 01:58:18;;;;;;;0.70;0.70;;;8.70;99.90;;;;;;5090240;28;20223;-74
2022/08/24 02:00:44;;;;;;;0.68;0.68;;;8.70;99.90;;;;;;5094880;28;20199;-72
2022/08/24 02:03:10;;;;;;;0.60;0.60;;;8.70;99.90;;;;;;5111089;28;20203;-73
2022/08/24 02:05:36;;;;;;;0.60;0.60;;;8.60;99.90;;;;;;5110694;28;20270;-73
2022/08/24 02:08:03;;;;;;;0.70;0.70;;;8.60;99.90;;;;;;5109890;28;20283;-72
2022/08/24 02:10:28;;;;;;;0.60;0.60;;;8.60;99.90;;;;;;5110873;28;20278;-73
2022/08/24 02:12:58;;;;;;;0.60;0.60;;;8.50;99.90;;;;;;5110220;28;20286;-73
2022/08/24 02:15:27;;;;;;;0.70;0.70;;;8.50;99.90;;;;;;5109645;28;20605;-74
2022/08/24 02:17:53;;;;;;;0.70;0.70;;;8.50;99.90;;;;;;5111195;28;20267;-72
2022/08/24 02:20:20;;;;;;;0.60;0.60;;;8.50;99.90;;;;;;5109485;28;20657;-72
2022/08/24 02:22:47;;;;;;;0.70;0.70;;;8.40;99.90;;;;;;5111546;28;20677;-72
2022/08/24 02:25:14;;;;;;;0.70;0.70;;;8.40;99.90;;;;;;5112172;28;20266;-74
2022/08/24 02:27:40;;;;;;;0.80;0.80;;;8.40;99.90;;;;;;5109797;28;20286;-71
2022/08/24 02:30:06;;;;;;;0.70;0.70;;;8.40;99.90;;;;;;5111027;28;20267;-72
2022/08/24 02:32:32;;;;;;;0.70;0.70;;;8.30;99.90;;;;;;5109939;28;20203;-72
2022/08/24 02:34:58;;;;;;;1.67;1.15;;;8.40;99.90;;;;;;5111315;28;20192;-71
2022/08/24 02:37:23;;;;;;;0.70;0.70;;;8.30;99.90;;;;;;5109903;28;20231;-71
2022/08/24 02:39:51;;;;;;;1.15;0.98;;;8.30;99.90;;;;;;5109726;28;20203;-72
2022/08/24 02:42:17;;;;;;;0.60;0.60;;;8.30;99.90;;;;;;5109157;28;20215;-73
2022/08/24 02:44:43;;;;;;;0.68;0.68;;;8.30;99.90;;;;;;5109749;28;20234;-76
2022/08/24 02:47:09;;;;;;;0.60;0.60;;;8.30;99.90;;;;;;5113963;28;20698;-73
2022/08/24 02:49:35;;;;;;;0.60;0.60;;;8.30;99.90;;;;;;5114037;28;20680;-72
2022/08/24 02:52:02;;;;;;;0.60;0.60;;;8.30;99.90;;;;;;5113208;28;20662;-72
2022/08/24 02:54:28;;;;;;;0.60;0.60;;;8.30;99.90;;;;;;5114285;28;20187;-72
2022/08/24 02:56:56;;;;;;;0.70;0.70;;;8.30;99.90;;;;;;5107126;28;20207;-74
2022/08/24 02:59:23;;;;;;;0.60;0.60;;;8.30;99.90;;;;;;5093722;28;20223;-71
2022/08/24 03:01:50;;;;;;;1.75;0.95;;;8.30;99.90;;;;;;5092300;28;20234;-71
2022/08/24 03:04:16;;;;;;;0.88;0.85;;;8.30;99.90;;;;;;5107610;28;20194;-74
2022/08/24 03:06:43;;;;;;;0.68;0.68;;;8.30;99.90;;;;;;5114357;28;20214;-72
2022/08/24 03:09:09;;;;;;;0.70;0.70;;;8.20;99.90;;;;;;5112838;28;20191;-72
2022/08/24 03:11:36;;;;;;;0.80;0.80;;;8.20;99.90;;;;;;5113399;28;20199;-71
2022/08/24 03:14:02;;;;;;;0.80;0.80;;;8.20;99.90;;;;;;5113914;28;20584;-73
2022/08/24 03:16:29;;;;;;;0.60;0.60;;;8.20;99.90;;;;;;5112287;28;20198;-72
2022/08/24 03:18:58;;;;;;;0.63;0.63;;;8.20;99.90;;;;;;5114057;28;20195;-72
2022/08/24 03:21:25;;;;;;;0.60;0.60;;;8.20;99.90;;;;;;5112012;28;20298;-73
2022/08/24 03:23:51;;;;;;;0.60;0.60;;;8.10;99.90;;;;;;5113984;28;20198;-72
2022/08/24 03:26:17;;;;;;;0.70;0.70;;;8.10;99.90;;;;;;5113803;28;20561;-72
2022/08/24 03:28:43;;;;;;;0.60;0.60;;;8.10;99.90;;;;;;5113946;28;20187;-72
2022/08/24 03:31:11;;;;;;;0.60;0.60;;;8.10;99.90;;;;;;5112740;28;20194;-73
2022/08/24 03:33:37;;;;;;;0.68;0.68;;;8.10;99.90;;;;;;5113645;28;20187;-72
2022/08/24 03:36:03;;;;;;;1.20;1.17;;;8.10;99.90;;;;;;5112100;28;20662;-72
2022/08/24 03:38:32;;;;;;;0.65;0.65;;;8.00;99.90;;;;;;5112979;28;20204;-72
2022/08/24 03:40:58;;;;;;;0.70;0.70;;;8.00;99.90;;;;;;5113533;28;20183;-72
2022/08/24 03:46:10;;;;;;;0.70;0.70;;;8.00;99.90;;;;;;5113625;28;20237;-72
2022/08/24 03:48:37;;;;;;;0.70;0.70;;;7.90;99.90;;;;;;5113291;28;20603;-73
2022/08/24 03:51:03;;;;;;;1.05;1.00;;;7.90;99.90;;;;;;5113531;28;20187;-72
2022/08/24 03:53:29;;;;;;;0.73;0.73;;;7.90;99.90;;;;;;5113132;28;20783;-72
2022/08/24 03:55:58;;;;;;;0.60;0.60;;;7.90;99.90;;;;;;5113135;28;20568;-72
2022/08/24 03:58:27;;;;;;;0.70;0.70;;;7.90;99.90;;;;;;5112959;28;20251;-72
2022/08/24 04:00:53;;;;;;;2.72;2.42;;;7.90;99.90;;;;;;5111249;28;20329;-72
2022/08/24 04:03:19;;;;;;;0.68;0.68;;;7.90;99.90;;;;;;5112526;28;20207;-72
2022/08/24 04:05:44;;;;;;;0.63;0.63;;;7.90;99.90;;;;;;5113135;28;20191;-72
2022/08/24 04:08:10;;;;;;;0.85;0.85;;;7.90;99.90;;;;;;5111621;28;20198;-72
2022/08/24 04:10:37;;;;;;;0.88;0.88;;;8.00;99.90;;;;;;5111367;28;20673;-72
2022/08/24 04:13:03;;;;;;;0.70;0.70;;;8.10;99.90;;;;;;5111959;28;20273;-72
2022/08/24 04:15:30;;;;;;;0.60;0.60;;;8.10;99.90;;;;;;5111551;28;20199;-73
2022/08/24 04:17:56;;;;;;;0.60;0.60;;;8.10;99.90;;;;;;5112904;28;20279;-72
2022/08/24 04:20:24;;;;;;;0.70;0.70;;;8.10;99.90;;;;;;5111085;28;20744;-72
2022/08/24 04:22:50;;;;;;;0.60;0.60;;;8.20;99.90;;;;;;5110779;28;20232;-73
2022/08/24 04:25:16;;;;;;;0.60;0.60;;;8.20;99.90;;;;;;5111393;28;20244;-72
2022/08/24 04:27:41;;;;;;;0.60;0.60;;;8.20;99.90;;;;;;5111081;28;20286;-71
2022/08/24 04:30:08;;;;;;;0.70;0.70;;;8.30;99.90;;;;;;5111308;28;20215;-72
2022/08/24 04:32:34;;;;;;;0.60;0.60;;;8.40;99.90;;;;;;5111000;28;20240;-72
2022/08/24 04:35:00;;;;;;;0.60;0.60;;;8.40;99.90;;;;;;5112138;28;20203;-72
2022/08/24 04:37:26;;;;;;;0.50;0.50;;;8.60;99.90;;;;;;5112351;28;20246;-72
2022/08/24 04:39:52;;;;;;;0.65;0.65;;;8.70;99.90;;;;;;5112553;28;20183;-72
2022/08/24 04:42:18;;;;;;;0.70;0.70;;;8.80;99.90;;;;;;5110130;28;20211;-71
2022/08/24 04:44:44;;;;;;;7.22;1.50;;;8.90;99.90;;;;;;5110814;28;20199;-72
2022/08/24 04:47:10;;;;;;;0.60;0.60;;;9.00;99.90;;;;;;5112327;28;20842;-72
2022/08/24 04:49:37;;;;;;;0.57;0.57;;;9.10;99.90;;;;;;5110644;28;20666;-71
2022/08/24 04:52:04;;;;;;;0.95;0.93;;;9.20;99.90;;;;;;5112388;28;20267;-72
2022/08/24 04:54:31;;;;;;;0.80;0.80;;;9.30;99.90;;;;;;5110837;28;20282;-71
2022/08/24 04:56:57;;;;;;;0.50;0.50;;;9.40;99.90;;;;;;5112097;28;20360;-72
2022/08/24 04:59:23;;;;;;;0.75;0.75;;;9.50;99.90;;;;;;5110476;28;20191;-72
2022/08/24 05:01:48;;;;;;;0.70;0.70;;;9.60;99.90;;;;;;5111954;28;20540;-71
2022/08/24 05:04:14;;;;;;;0.70;0.70;;;9.70;99.90;;;;;;5111880;28;20203;-72
2022/08/24 05:06:41;;;;;;;0.65;0.65;;;9.80;99.90;;;;;;5111922;28;20188;-72
2022/08/24 05:09:07;;;;;;;0.75;0.75;;;9.90;99.90;;;;;;5111035;28;20184;-72
2022/08/24 05:11:36;;;;;;;0.68;0.68;;;10.10;99.90;;;;;;5110229;28;20561;-72
2022/08/24 05:14:02;;;;;;;0.50;0.50;;;10.20;99.90;;;;;;5110438;28;20312;-71
2022/08/24 05:16:28;;;;;;;0.50;0.50;;;10.30;99.90;;;;;;5110369;28;20676;-72
2022/08/24 05:18:55;;;;;;;0.60;0.60;;;10.40;99.90;;;;;;5110484;28;20254;-72
2022/08/24 05:21:23;;;;;;;0.73;0.73;;;10.60;99.90;;;;;;5109985;28;20757;-73
2022/08/24 05:23:49;;;;;;;5.13;1.13;;;10.70;99.90;;;;;;5111903;28;20511;-72
2022/08/24 05:26:23;;;;;;;0.70;0.70;;;10.80;99.90;;;;;;5110527;28;20331;-72
2022/08/24 05:28:49;;;;;;;0.60;0.60;;;11.00;99.90;;;;;;5111887;28;20183;-72
2022/08/24 05:31:22;;;;;;;1.30;0.82;;;11.10;99.90;;;;;;5111221;28;20603;-72
2022/08/24 05:33:48;;;;;;;0.52;0.52;;;11.30;99.90;;;;;;5111136;28;20191;-72
2022/08/24 05:36:22;;;;;;;0.70;0.70;;;11.40;99.90;;;;;;5111837;28;20215;-73
2022/08/24 05:38:49;;;;;;;1.10;0.88;;;11.60;99.90;;;;;;5110424;28;20199;-72
2022/08/24 05:41:16;;;;;;;0.70;0.70;;;11.80;99.90;;;;;;5111689;28;20546;-73
2022/08/24 05:43:42;;;;;;;0.40;0.40;;;11.90;99.90;;;;;;5111803;28;20207;-72
2022/08/24 05:46:09;;;;;;;0.65;0.65;;;12.10;99.90;;;;;;5111474;28;20279;-72
2022/08/24 05:48:36;;;;;;;0.80;0.80;;;12.40;99.90;;;;;;5111526;28;20191;-72
2022/08/24 05:51:02;;;;;;;0.88;0.88;;;12.60;99.90;;;;;;5109872;28;20244;-72
2022/08/24 05:53:28;;;;;;;0.40;0.40;;;12.80;99.90;;;;;;5110896;28;20287;-73
2022/08/24 05:56:01;;;;;;;0.50;0.50;;;12.90;99.90;;;;;;5111392;28;20649;-73
2022/08/24 05:58:28;;;;;;;0.50;0.50;;;13.10;99.90;;;;;;5111169;28;20651;-72
2022/08/24 06:00:58;;;;;;;0.57;0.57;;;13.30;99.90;;;;;;5111315;28;20195;-72
2022/08/24 06:03:25;;;;;;;0.40;0.40;;;13.40;99.90;;;;;;5111138;28;20211;-72
2022/08/24 06:05:51;;;;;;;0.50;0.50;;;13.60;99.90;;;;;;5110071;28;20191;-72
2022/08/24 06:08:17;;;;;;;0.70;0.70;;;13.70;99.90;;;;;;5110047;28;20204;-73
2022/08/24 06:10:48;;;;;;;0.80;0.80;;;13.80;99.90;;;;;;5109965;28;20563;-72
2022/08/24 06:13:15;;;;;;;0.43;0.43;;;14.00;99.90;;;;;;5110669;28;20693;-72
2022/08/24 06:15:42;;;;;;;0.65;0.65;;;14.10;99.90;;;;;;5111162;28;20199;-72
2022/08/24 06:18:08;;;;;;;0.60;0.60;;;14.30;99.90;;;;;;5111106;28;20271;-72
2022/08/24 06:20:39;;;;;;;0.50;0.50;;;14.40;99.90;;;;;;5110765;28;20199;-72
2022/08/24 06:23:05;;;;;;;0.40;0.40;;;14.50;99.90;;;;;;5113450;28;20671;-72
2022/08/24 06:28:15;;;;;;;0.98;0.85;;;14.80;99.90;;;;;;5094726;28;20328;-72
2022/08/24 06:30:44;;;;;;;10.52;0.70;;;14.90;99.90;;;;;;5094380;28;20200;-72
2022/08/24 06:33:10;;;;;;;0.50;0.50;;;15.10;99.90;;;;;;5094514;28;20188;-72
2022/08/24 06:35:36;;;;;;;0.60;0.60;;;15.20;99.90;;;;;;5093770;28;20245;-72
2022/08/24 06:38:01;;;;;;;0.50;0.50;;;15.20;99.90;;;;;;5109703;28;20188;-72
2022/08/24 06:40:27;;;;;;;0.40;0.40;;;15.40;99.90;;;;;;5094150;28;20192;-72
2022/08/24 06:42:53;;;;;;;0.55;0.55;;;15.50;99.90;;;;;;5094358;28;20219;-72
2022/08/24 06:45:20;;;;;;;0.50;0.50;;;15.60;99.90;;;;;;5109457;28;20196;-73
2022/08/24 06:47:46;;;;;;;0.50;0.50;;;15.70;99.90;;;;;;5092784;28;20199;-71
2022/08/24 06:50:12;;;;;;;0.45;0.45;;;15.90;99.90;;;;;;5108387;28;20199;-71
2022/08/24 06:52:38;;;;;;;0.55;0.45;;;16.10;99.90;;;;;;5114685;28;20195;-71
2022/08/24 06:55:08;;;;;;;0.40;0.40;;;16.20;99.90;;;;;;5113012;28;20670;-73
2022/08/24 06:57:34;;;;;;;0.40;0.40;;;16.30;99.90;;;;;;5114262;28;20249;-71
2022/08/24 07:00:03;;;;;;;0.40;0.40;;;16.50;99.90;;;;;;5112671;28;20702;-72
2022/08/24 07:02:41;;;;;;;0.40;0.40;;;16.60;99.90;;;;;;5112015;28;20199;-72
2022/08/24 07:05:08;;;;;;;0.50;0.50;;;16.70;99.90;;;;;;5113884;28;20583;-72
2022/08/24 07:07:34;;;;;;;1.00;0.70;;;16.90;99.90;;;;;;5113863;28;20212;-71
2022/08/24 07:10:00;;;;;;;0.50;0.50;;;16.90;99.90;;;;;;5113977;28;20280;-71
2022/08/24 07:12:26;;;;;;;0.50;0.50;;;16.90;99.90;;;;;;5113760;28;20688;-72
2022/08/24 07:14:52;;;;;;;0.38;0.38;;;17.00;99.90;;;;;;5114018;28;20187;-72
2022/08/24 07:17:17;;;;;;;0.95;0.60;;;17.10;99.90;;;;;;5113727;28;20248;-71
2022/08/24 07:19:47;;;;;;;0.30;0.30;;;17.20;99.90;;;;;;5112540;28;20203;-72
2022/08/24 07:22:13;;;;;;;0.45;0.45;;;17.40;99.90;;;;;;5112080;28;20329;-72
2022/08/24 07:24:39;;;;;;;0.30;0.30;;;17.70;99.90;;;;;;5111424;28;20632;-72
2022/08/24 07:27:08;;;;;;;0.45;0.45;;;17.90;99.90;;;;;;5099816;28;20674;-72
2022/08/24 07:29:34;;;;;;;0.40;0.40;;;18.10;99.90;;;;;;5091691;28;20703;-72
2022/08/24 07:31:59;;;;;;;0.47;0.47;;;18.30;99.90;;;;;;5092701;28;20188;-73
2022/08/24 07:34:25;;;;;;;0.30;0.30;;;18.30;99.90;;;;;;5092857;28;20252;-72
2022/08/24 07:36:53;;;;;;;0.57;0.57;;;18.40;99.90;;;;;;5093125;28;20192;-72
2022/08/24 07:39:19;;;;;;;0.30;0.30;;;18.60;99.90;;;;;;5091552;28;20283;-72
2022/08/24 07:41:45;;;;;;;1.02;0.93;;;18.70;99.90;;;;;;5100792;28;20287;-72
2022/08/24 07:44:11;;;;;;;6.07;0.63;;;18.80;99.90;;;;;;5113367;28;20192;-72
2022/08/24 07:46:39;;;;;;;0.90;0.47;;;18.90;99.90;;;;;;5112989;28;20207;-73
2022/08/24 07:49:06;;;;;;;0.55;0.43;;;18.90;99.90;;;;;;5111703;28;20267;-73
2022/08/24 07:51:35;;;;;;;0.30;0.30;;;19.00;99.90;;;;;;5112914;28;20227;-71
2022/08/24 07:54:02;;;;;;;0.40;0.40;;;19.10;99.90;;;;;;5111847;28;20244;-72
2022/08/24 07:56:28;;;;;;;0.77;0.45;;;19.00;99.90;;;;;;5113102;28;20242;-72
2022/08/24 07:58:54;;;;;;;0.40;0.40;;;18.90;99.90;;;;;;5113482;28;20211;-72
2022/08/24 08:01:21;;;;;;;0.32;0.32;;;18.80;99.90;;;;;;5111565;28;20505;-72
2022/08/24 08:03:47;;;;;;;0.40;0.40;;;19.00;99.90;;;;;;5113201;28;20207;-72
2022/08/24 08:06:13;;;;;;;0.70;0.68;;;19.20;99.90;;;;;;5111717;28;20191;-73
2022/08/24 08:08:40;;;;;;;1.85;1.15;;;19.30;99.90;;;;;;5113100;28;20669;-72
2022/08/24 08:11:07;;;;;;;0.32;0.32;;;19.50;99.90;;;;;;5113055;28;20416;-73
2022/08/24 08:13:34;;;;;;;0.60;0.60;;;19.70;99.90;;;;;;5112951;28;20187;-72
2022/08/24 08:16:02;;;;;;;0.70;0.70;;;20.00;99.90;;;;;;5111033;28;20205;-72
2022/08/24 08:18:28;;;;;;;0.30;0.30;;;20.20;99.90;;;;;;5111928;28;20689;-73
2022/08/24 08:20:57;;;;;;;0.35;0.35;;;20.30;99.90;;;;;;5111358;28;20253;-72
2022/08/24 08:26:18;;;;;;;10.27;0.60;;;20.20;99.90;;;;;;5107423;28;20714;-72
2022/08/24 08:28:45;;;;;;;0.40;0.40;;;20.50;99.90;;;;;;5092568;28;20260;-73
2022/08/24 08:31:11;;;;;;;0.20;0.20;;;20.60;99.90;;;;;;5092389;28;20199;-72
2022/08/24 08:33:37;;;;;;;0.90;0.85;;;20.80;99.90;;;;;;5092351;28;20196;-72
2022/08/24 08:36:05;;;;;;;0.30;0.30;;;21.10;99.90;;;;;;5092639;28;20276;-72
2022/08/24 08:38:32;;;;;;;0.77;0.60;;;21.30;99.90;;;;;;5090363;28;20650;-72
2022/08/24 08:41:18;;;;;;;0.30;0.30;;;21.20;99.90;;;;;;5091950;28;20211;-72
2022/08/24 08:43:51;;;;;;;0.57;0.57;;;21.10;99.90;;;;;;5091633;28;20204;-72
2022/08/24 08:46:43;;;;;;;0.93;0.73;;;20.90;99.90;;;;;;5090909;28;20202;-73
2022/08/24 08:49:23;;;;;;;0.28;0.28;;;21.00;99.90;;;;;;5090924;28;20192;-73
2022/08/24 08:52:16;;;;;;;0.38;0.38;;;21.10;99.90;;;;;;5090496;28;20191;-72
2022/08/24 08:54:57;;;;;;;0.45;0.45;;;21.50;99.90;;;;;;5091884;28;20184;-73
2022/08/24 08:57:44;;;;;;;0.68;0.45;;;21.90;99.90;;;;;;5090409;28;20654;-73
2022/08/24 09:00:12;;;;;;;0.30;0.30;;;22.00;99.90;;;;;;5091371;28;20504;-72
2022/08/24 09:03:10;;;;;;;0.30;0.30;;;22.00;99.90;;;;;;5089899;28;20249;-72
2022/08/24 09:05:46;;;;;;;0.55;0.55;;;22.20;99.90;;;;;;5091398;28;20619;-73
2022/08/24 09:08:30;;;;;;;0.40;0.40;;;22.60;99.90;;;;;;5091639;28;20191;-72
2022/08/24 09:11:07;;;;;;;0.40;0.40;;;22.90;99.90;;;;;;5091519;28;20265;-72
2022/08/24 09:13:42;;;;;;;0.28;0.28;;;23.20;99.90;;;;;;5091719;28;20187;-73
2022/08/24 09:16:11;;;;;;;0.52;0.52;;;23.40;99.90;;;;;;5105164;28;20222;-74
2022/08/24 09:19:01;;;;;;;0.70;0.60;;;23.50;99.90;;;;;;5111651;28;20188;-73
2022/08/24 09:21:40;;;;;;;3.00;1.08;;;23.80;99.90;;;;;;5109506;28;20230;-73
2022/08/24 09:24:42;;;;;;;0.35;0.35;;;23.70;99.90;;;;;;5110397;28;20574;-73
2022/08/24 09:27:31;;;;;;;0.20;0.20;;;23.70;99.90;;;;;;5112164;28;20684;-73
2022/08/24 09:30:18;;;;;;;0.28;0.28;;;23.60;99.90;;;;;;5111969;28;20188;-73
2022/08/24 09:32:59;;;;;;;0.13;0.13;;;23.80;99.90;;;;;;5111759;28;20708;-73
2022/08/24 09:36:00;;;;;;;0.20;0.20;;;23.60;99.90;;;;;;5110246;28;20191;-73
2022/08/24 09:38:59;;;;;;;0.60;0.60;;;24.10;99.90;;;;;;5103854;28;20238;-73
2022/08/24 09:41:52;;;;;;;0.47;0.30;;;24.50;99.90;;;;;;5110016;28;20763;-73
2022/08/24 09:44:18;;;;;;;0.20;0.20;;;24.90;99.90;;;;;;5109784;28;20697;-73
2022/08/24 09:47:25;;;;;;;2.40;0.75;;;24.70;99.90;;;;;;5110103;28;20195;-73
2022/08/24 09:50:13;;;;;;;1.65;0.63;;;24.60;99.90;;;;;;5110403;28;20187;-73
2022/08/24 09:52:57;;;;;;;0.68;0.68;;;24.10;99.90;;;;;;5110054;28;20199;-74
2022/08/24 09:55:47;;;;;;;0.43;0.43;;;24.20;99.90;;;;;;5112441;28;20195;-74
2022/08/24 09:58:53;;;;;;;0.40;0.40;;;24.30;99.90;;;;;;5114851;28;20654;-71
2022/08/24 10:01:42;;;;;;;0.30;0.20;;;24.70;99.90;;;;;;5115369;28;20187;-72
2022/08/24 10:04:19;;;;;;;0.30;0.30;;;24.90;99.90;;;;;;5115289;28;20571;-74
2022/08/24 10:06:58;;;;;;;0.28;0.28;;;25.00;99.90;;;;;;5114342;28;20215;-72
2022/08/24 10:09:42;;;;;;;0.40;0.40;;;25.30;99.90;;;;;;5115225;28;20560;-74
2022/08/24 10:12:38;;;;;;;0.13;0.13;;;25.60;99.90;;;;;;5115187;28;20206;-74
2022/08/24 10:15:15;;;;;;;0.10;0.10;;;26.00;99.90;;;;;;5115671;28;20711;-74
2022/08/24 10:18:05;;;;;;;0.85;0.40;;;25.70;99.90;;;;;;5115368;28;20649;-74
2022/08/24 10:20:50;;;;;;;0.20;0.20;;;25.80;99.90;;;;;;5115266;28;20209;-74
2022/08/24 10:23:31;;;;;;;0.32;0.30;;;25.60;99.90;;;;;;5113692;28;20227;-74
2022/08/24 10:26:22;;;;;;;0.20;0.20;;;25.30;99.90;;;;;;5111299;28;20192;-72
2022/08/24 10:29:12;;;;;;;0.32;0.20;;;25.10;99.90;;;;;;5094459;28;20201;-75
2022/08/24 10:31:42;;;;;;;0.50;0.50;;;25.30;99.90;;;;;;5092712;28;20208;-72
2022/08/24 10:34:41;;;;;;;0.63;0.55;;;25.70;99.90;;;;;;5098818;28;20673;-74
2022/08/24 10:37:21;;;;;;;0.20;0.20;;;25.80;99.90;;;;;;5115125;28;20681;-73
2022/08/24 10:40:19;;;;;;;0.35;0.32;;;26.00;99.90;;;;;;5115391;28;20227;-74
2022/08/24 10:43:32;;;;;;;0.13;0.13;;;26.50;99.90;;;;;;5115096;28;20203;-72
2022/08/24 10:46:37;;;;;;;0.57;0.57;;;26.70;99.90;;;;;;5113605;28;20251;-73
2022/08/24 10:49:30;;;;;;;0.40;0.40;;;26.50;99.90;;;;;;5112876;28;20825;-76
2022/08/24 10:52:25;;;;;;;0.43;0.40;;;26.50;99.90;;;;;;5077947;28;20288;-73
2022/08/24 10:54:56;;;;;;;0.55;0.55;;;26.90;99.90;;;;;;5114656;28;20197;-74
2022/08/24 10:57:38;;;;;;;0.43;0.22;;;27.10;99.90;;;;;;5114242;27;20247;-74
2022/08/24 11:00:13;;;;;;;0.55;0.45;;;27.60;99.90;;;;;;5113476;28;20190;-73
2022/08/24 11:02:44;;;;;;;0.45;0.45;;;27.60;99.90;;;;;;5112898;28;20305;-75
2022/08/24 11:05:34;;;;;;;0.30;0.30;;;27.60;99.90;;;;;;5114583;28;20202;-73
2022/08/24 11:08:04;;;;;;;0.20;0.20;;;27.10;99.90;;;;;;5113577;28;20202;-73
2022/08/24 11:10:34;;;;;;;11.70;0.73;;;27.00;99.90;;;;;;5114405;28;20556;-74
2022/08/24 11:13:23;;;;;;;0.20;0.20;;;27.00;99.90;;;;;;5114257;28;20191;-73
2022/08/24 11:15:53;;;;;;;0.20;0.20;;;26.80;99.90;;;;;;5112779;28;20241;-73
2022/08/24 11:18:21;;;;;;;1.55;0.65;;;26.90;99.90;;;;;;5113944;28;20195;-73
2022/08/24 11:20:48;;;;;;;0.10;0.10;;;26.80;99.90;;;;;;5112902;28;20256;-74
2022/08/24 11:23:35;;;;;;;1.65;0.65;;;26.70;99.90;;;;;;5114128;28;20677;-74
2022/08/24 11:26:14;;;;;;;0.20;0.20;;;26.80;99.90;;;;;;5109464;28;20256;-74
2022/08/24 11:28:45;;;;;;;0.40;0.30;;;26.80;99.90;;;;;;5093697;28;20187;-74
2022/08/24 11:31:31;;;;;;;0.40;0.35;;;27.10;99.90;;;;;;5106377;28;20654;-74
2022/08/24 11:34:12;;;;;;;0.22;0.22;;;27.40;99.90;;;;;;5111914;28;20567;-74
2022/08/24 11:36:38;;;;;;;1.38;0.55;;;27.50;99.90;;;;;;5113603;28;20628;-74
2022/08/24 11:39:34;;;;;;;0.35;0.22;;;28.20;99.90;;;;;;5113803;28;20255;-74
2022/08/24 11:42:37;;;;;;;0.20;0.20;;;28.50;99.00;;;;;;5105600;28;20287;-74
2022/08/24 11:45:11;;;;;;;0.57;0.40;;;28.30;98.50;;;;;;5112755;28;20199;-74
2022/08/24 11:47:51;;;;;;;0.20;0.20;;;28.00;99.90;;;;;;5113223;28;20206;-73
2022/08/24 11:50:36;;;;;;;0.20;0.20;;;27.80;99.90;;;;;;5112182;28;20252;-74
2022/08/24 11:53:37;;;;;;;1.27;0.63;;;27.60;97.70;;;;;;5114022;28;20550;-74
2022/08/24 11:56:34;;;;;;;1.10;0.75;;;27.20;99.20;;;;;;5112228;28;20195;-74
2022/08/24 11:59:15;;;;;;;0.20;0.20;;;27.20;99.90;;;;;;5112718;28;20677;-74
2022/08/24 12:01:57;;;;;;;1.20;0.30;;;27.40;99.90;;;;;;5113125;28;20193;-73
2022/08/24 12:04:51;;;;;;;0.30;0.30;;;27.00;99.80;;;;;;5112888;28;20717;-74
2022/08/24 12:07:32;;;;;;;1.45;0.40;;;26.70;99.30;;;;;;5113202;28;20199;-74
2022/08/24 12:10:17;;;;;;;0.50;0.17;;;27.10;99.80;;;;;;5112118;28;20194;-74
2022/08/24 12:13:04;;;;;;;0.20;0.20;;;27.00;99.80;;;;;;5111826;28;20210;-74
2022/08/24 12:15:36;;;;;;;0.32;0.32;;;26.90;99.90;;;;;;5111146;28;20561;-74
2022/08/24 12:18:17;;;;;;;0.32;0.32;;;27.40;99.90;;;;;;5112552;28;20179;-74
2022/08/24 12:20:47;;;;;;;0.17;0.17;;;28.00;99.90;;;;;;5111581;28;20198;-73
2022/08/24 12:23:25;;;;;;;0.20;0.20;;;28.10;98.10;;;;;;5112301;28;20581;-73
2022/08/24 12:26:14;;;;;;;0.20;0.20;;;27.70;97.70;;;;;;5109709;28;20230;-73
2022/08/24 12:28:51;;;;;;;0.85;0.22;;;27.20;97.10;;;;;;5091293;28;20195;-74
2022/08/24 12:31:38;;;;;;;1.40;0.32;;;27.40;98.30;;;;;;5091114;28;20558;-74
2022/08/24 12:34:15;;;;;;;0.30;0.28;;;27.10;97.00;;;;;;5092743;28;20184;-74
2022/08/24 12:36:47;;;;;;;0.40;0.30;;;27.00;97.80;;;;;;5107719;28;20219;-74
2022/08/24 12:39:27;;;;;;;0.10;0.10;;;26.70;97.40;;;;;;5092135;28;20220;-75
2022/08/24 12:41:56;;;;;;;0.20;0.20;;;26.80;97.80;;;;;;5091518;28;20188;-74
2022/08/24 12:44:30;;;;;;;0.20;0.20;;;27.10;98.10;;;;;;5091545;28;20195;-74
2022/08/24 12:46:56;;;;;;;0.30;0.30;;;27.30;99.90;;;;;;5090828;28;20631;-74
2022/08/24 12:49:45;;;;;;;0.20;0.20;;;27.70;97.90;;;;;;5090263;28;20701;-75
2022/08/24 12:52:49;;;;;;;0.20;0.20;;;28.00;97.30;;;;;;5092101;28;20294;-75
2022/08/24 12:55:42;;;;;;;0.20;0.20;;;28.30;96.10;;;;;;5091893;28;20195;-75
2022/08/24 12:58:39;;;;;;;0.20;0.20;;;28.50;95.70;;;;;;5091947;28;20253;-75
2022/08/24 13:01:06;;;;;;;0.10;0.10;;;28.00;96.50;;;;;;5105835;28;20230;-75
2022/08/24 13:03:38;;;;;;;0.65;0.30;;;27.80;97.10;;;;;;5110423;28;20210;-74
2022/08/24 13:06:18;;;;;;;0.28;0.22;;;27.80;95.10;;;;;;5110698;28;20197;-75
2022/08/24 13:08:49;;;;;;;0.40;0.40;;;27.60;96.70;;;;;;5111947;28;20264;-75
2022/08/24 13:11:33;;;;;;;0.20;0.20;;;27.60;97.00;;;;;;5110623;28;20620;-75
2022/08/24 13:14:04;;;;;;;0.50;0.28;;;27.40;96.60;;;;;;5112072;28;20194;-75
2022/08/24 13:16:55;;;;;;;1.00;0.30;;;27.60;96.30;;;;;;5110613;28;20191;-74
2022/08/24 13:19:29;;;;;;;0.32;0.32;;;27.30;95.10;;;;;;5111607;28;20187;-75
2022/08/24 13:22:09;;;;;;;0.50;0.43;;;27.30;98.20;;;;;;5111426;28;20225;-74
2022/08/24 13:24:36;;;;;;;0.22;0.22;;;27.00;97.10;;;;;;5112780;28;20194;-74
2022/08/24 13:27:10;;;;;;;0.40;0.30;;;26.80;97.80;;;;;;5098237;28;20192;-75
2022/08/24 13:29:45;;;;;;;0.70;0.47;;;27.00;97.80;;;;;;5090016;28;20198;-74